Flight Track Log - Related Links

Times and Time Zones

All times are in EDT time to prevent confusion due to time zone crossing. See the N472ER flight status page for this flight to view local times or setup timezone preferences in your user account.

Time Position Orientation Groundspeed Altitude Reporting Facility
EDT Latitude Longitude Course Direction KTS MPH feet Rate Location/Type
Mon 07:46:59 AM 28.9167 -80.9333 160° South 94 108 3,000  Level Orlando TRACON
Mon 07:47:47 AM 28.9000 -80.9333 180° South 95 109 3,000 53 Level Orlando TRACON
Mon 07:48:53 AM 28.8667 -80.9167 156° South 93 107 3,100 47 Climbing Orlando TRACON
Mon 07:49:54 AM 28.8500 -80.9167 180° South 95 109 3,100 -50 Level Orlando TRACON
Mon 07:50:54 AM 28.8167 -80.9000 156° South 95 109 3,000 -45 Descending Orlando TRACON
Mon 07:52:00 AM 29.1519 -81.0461 160° South  Level Estimated
Mon 07:52:06 AM 28.7833 -80.9000 180° South 94 108 3,000  Level Orlando TRACON
Mon 07:52:54 AM 28.7667 -80.9000 180° South 94 108 3,000 53 Level Orlando TRACON
Mon 07:54:00 AM 28.7333 -80.8833 156° South 98 113 3,100 48 Climbing Orlando TRACON
Mon 07:55:00 AM 28.7167 -80.8833 180° South 96 110 3,100 -50 Level Orlando TRACON
Mon 07:56:00 AM 28.6833 -80.8833 180° South 103 119 3,000  Descending Orlando TRACON
Mon 07:57:00 AM 28.6667 -80.8667 139° Southeast 94 108 3,100 50 Climbing Orlando TRACON
Mon 07:58:00 AM 28.6333 -80.8500 156° South 97 112 3,100  Level Orlando TRACON
Mon 07:59:00 AM 28.6000 -80.8500 180° South 99 114 3,100  Level Orlando TRACON
Mon 08:00:00 AM 28.5833 -80.8500 180° South 102 117 3,100  Level Orlando TRACON
Mon 08:01:00 AM 28.5500 -80.8500 180° South 95 109 3,100  Level Orlando TRACON
Mon 08:01:55 AM 28.5333 -80.8333 139° Southeast 95 109 3,100  Level Orlando TRACON
Mon 08:03:01 AM 28.5000 -80.8333 180° South 98 113 3,100  Level Orlando TRACON
Mon 08:04:00 AM 28.4667 -80.8167 156° South 99 114 3,100  Level Orlando TRACON
Mon 08:05:01 AM 28.4500 -80.8167 180° South 99 114 3,100 -47 Level Orlando TRACON
Mon 08:06:07 AM 28.4167 -80.8000 156° South 101 116 3,000 -45 Descending Orlando TRACON
Mon 08:07:13 AM 28.3833 -80.7833 156° South 96 110 3,000 53 Level Orlando TRACON
Mon 08:08:01 AM 28.3667 -80.7833 180° South 93 107 3,100 59 Climbing Orlando TRACON
Mon 08:08:55 AM 28.3500 -80.7667 139° Southeast 94 108 3,100  Level Orlando TRACON
Mon 08:10:57 AM 28.3067 -80.7428 154° Southeast 102 117 3,100  Level Miami Center
Mon 08:11:57 AM 28.2775 -80.7322 162° South 102 117 3,100  Level Miami Center
Mon 08:12:57 AM 28.2531 -80.7197 156° South 102 117 3,100  Level Miami Center
Mon 08:13:57 AM 28.2261 -80.7117 165° South 102 117 3,100  Level Miami Center
Mon 08:14:57 AM 28.2031 -80.7061 168° South 102 117 3,100  Level Miami Center
Mon 08:15:57 AM 28.1742 -80.7028 174° South 102 117 3,100  Level Miami Center
Mon 08:16:57 AM 28.1469 -80.6994 174° South 102 117 3,100  Level Miami Center
Mon 08:17:57 AM 28.1200 -80.6961 174° South 102 117 3,100 -50 Level Miami Center
Mon 08:18:57 AM 28.0972 -80.6861 159° South 102 117 3,000 -50 Descending Miami Center
Mon 08:19:57 AM 28.0747 -80.6711 150° Southeast 102 117 3,000  Level Miami Center
Mon 08:20:57 AM 28.0522 -80.6492 139° Southeast 102 117 3,000  Level Miami Center
Mon 08:21:57 AM 28.0278 -80.6319 148° Southeast 97 112 3,000  Level Miami Center
Mon 08:22:57 AM 28.0053 -80.6125 143° Southeast 102 117 3,000 50 Level Miami Center
Mon 08:23:57 AM 27.9847 -80.6022 156° South 102 117 3,100  Climbing Miami Center
Mon 08:24:57 AM 27.9619 -80.5897 154° Southeast 96 110 3,000 -50 Descending Miami Center
Mon 08:25:57 AM 27.9333 -80.5747 155° Southeast 96 110 3,000  Level Miami Center
Mon 08:26:57 AM 27.9106 -80.5622 154° Southeast 96 110 3,000 50 Level Miami Center
Mon 08:27:57 AM 27.8836 -80.5544 166° South 96 110 3,100 50 Climbing Miami Center
Mon 08:28:57 AM 27.8631 -80.5419 152° Southeast 96 110 3,100 -50 Level Miami Center
Mon 08:29:57 AM 27.8342 -80.5269 155° Southeast 96 110 3,000 -50 Descending Miami Center
Mon 08:30:57 AM 27.8094 -80.5167 160° South 96 110 3,000 -350 Level Miami Center
Mon 08:31:57 AM 27.7869 -80.4950 140° Southeast 96 110 2,300  Descending Miami Center
Mon 08:32:57 AM 27.7686 -80.4825 149° Southeast 96 110 3,000 700 Climbing Miami Center

Login

Don't have an account? Register now (free) for customized features, flight alerts, and more!